createdAt,value
2023-01-21T00:00:59.536Z,1.70
2023-01-21T00:03:26.047Z,1.67
2023-01-21T00:05:52.533Z,1.50
2023-01-21T00:08:19.016Z,1.97
2023-01-21T00:10:45.488Z,1.40
2023-01-21T00:13:11.944Z,1.50
2023-01-21T00:15:38.538Z,1.90
2023-01-21T00:18:05.593Z,1.80
2023-01-21T00:20:32.321Z,2.00
2023-01-21T00:22:58.955Z,1.70
2023-01-21T00:25:25.435Z,1.57
2023-01-21T00:27:51.923Z,1.87
2023-01-21T00:30:19.136Z,1.63
2023-01-21T00:32:45.697Z,1.60
2023-01-21T00:35:12.187Z,2.00
2023-01-21T00:37:38.916Z,2.03
2023-01-21T00:40:06.595Z,1.60
2023-01-21T00:42:33.072Z,1.60
2023-01-21T00:44:59.545Z,1.43
2023-01-21T00:47:25.991Z,1.60
2023-01-21T00:49:52.468Z,1.60
2023-01-21T00:52:18.924Z,1.47
2023-01-21T00:54:45.456Z,1.40
2023-01-21T00:57:13.073Z,1.60
2023-01-21T00:59:39.756Z,1.80
2023-01-21T01:02:06.252Z,1.50
2023-01-21T01:04:32.782Z,1.97
2023-01-21T01:06:59.255Z,1.70
2023-01-21T01:09:25.741Z,2.13
2023-01-21T01:11:52.261Z,1.57
2023-01-21T01:14:18.773Z,1.37
2023-01-21T01:16:45.222Z,1.63
2023-01-21T01:19:12.293Z,1.90
2023-01-21T01:21:38.947Z,1.57
2023-01-21T01:24:06.060Z,1.60
2023-01-21T01:26:34.798Z,1.37
2023-01-21T01:29:03.180Z,1.70
2023-01-21T01:31:29.728Z,1.60
2023-01-21T01:33:57.146Z,1.50
2023-01-21T01:36:24.225Z,1.90
2023-01-21T01:38:52.860Z,1.57
2023-01-21T01:41:29.846Z,1.40
2023-01-21T01:44:06.146Z,1.20
2023-01-21T01:46:36.046Z,1.80
2023-01-21T01:49:18.109Z,1.50
2023-01-21T01:51:53.157Z,1.80
2023-01-21T01:54:28.848Z,1.57
2023-01-21T01:57:01.690Z,1.70
2023-01-21T01:59:29.916Z,1.63
2023-01-21T02:01:59.868Z,1.43
2023-01-21T02:04:33.761Z,1.43
2023-01-21T02:07:00.479Z,1.73
2023-01-21T02:09:29.082Z,1.60
2023-01-21T02:12:02.105Z,1.90
2023-01-21T02:14:31.143Z,1.33
2023-01-21T02:23:03.642Z,1.57
2023-01-21T02:28:44.748Z,1.63
2023-01-21T02:32:01.615Z,1.70
2023-01-21T02:35:21.616Z,1.30
2023-01-21T02:38:45.888Z,1.57
2023-01-21T02:41:56.094Z,1.33
2023-01-21T02:44:56.376Z,1.37
2023-01-21T02:47:39.824Z,1.73
2023-01-21T02:50:30.579Z,1.50
2023-01-21T02:53:00.439Z,1.53
2023-01-21T02:55:35.628Z,1.30
2023-01-21T02:58:11.446Z,1.10
2023-01-21T03:01:17.537Z,1.27
2023-01-21T03:08:34.582Z,1.40
2023-01-21T03:11:20.526Z,1.90
2023-01-21T03:14:19.228Z,2.10
2023-01-21T03:16:56.137Z,1.77
2023-01-21T03:20:33.485Z,1.73
2023-01-21T03:23:10.260Z,1.10
2023-01-21T03:25:39.691Z,1.20
2023-01-21T03:28:13.019Z,1.97
2023-01-21T03:30:48.434Z,1.47
2023-01-21T03:33:17.981Z,1.70
2023-01-21T03:35:48.804Z,1.00
2023-01-21T03:38:28.801Z,1.70
2023-01-21T03:41:35.761Z,1.67
2023-01-21T03:44:02.722Z,1.40
2023-01-21T03:48:15.666Z,1.33
2023-01-21T03:50:55.925Z,1.43
2023-01-21T03:53:22.728Z,1.63
2023-01-21T03:55:52.382Z,1.70
2023-01-21T03:58:18.886Z,1.70
2023-01-21T04:00:45.996Z,1.63
2023-01-21T04:03:12.512Z,1.40
2023-01-21T04:05:38.999Z,1.20
2023-01-21T04:08:05.482Z,1.27
2023-01-21T04:10:31.952Z,1.93
2023-01-21T04:12:58.434Z,1.70
2023-01-21T04:15:24.906Z,2.00
2023-01-21T04:17:51.363Z,1.63
2023-01-21T04:20:19.020Z,1.50
2023-01-21T04:22:45.594Z,1.70
2023-01-21T04:25:12.036Z,1.47
2023-01-21T04:27:38.503Z,1.53
2023-01-21T04:30:06.244Z,1.77
2023-01-21T04:32:32.902Z,1.40
2023-01-21T04:34:59.379Z,1.70
2023-01-21T04:37:25.847Z,1.47
2023-01-21T04:39:52.323Z,1.40
2023-01-21T04:42:18.773Z,1.40
2023-01-21T04:44:45.265Z,1.70
2023-01-21T04:47:11.761Z,1.43
2023-01-21T04:49:38.213Z,1.37
2023-01-21T04:52:04.843Z,2.57
2023-01-21T04:54:31.325Z,1.63
2023-01-21T04:56:58.499Z,1.90
2023-01-21T04:59:25.044Z,2.10
2023-01-21T05:01:51.497Z,2.10
2023-01-21T05:04:17.973Z,2.33
2023-01-21T05:06:44.407Z,2.00
2023-01-21T05:09:10.872Z,2.07
2023-01-21T05:11:37.329Z,1.80
2023-01-21T05:14:03.798Z,1.73
2023-01-21T05:16:30.390Z,2.00
2023-01-21T05:18:56.939Z,2.10
2023-01-21T05:21:23.437Z,1.93
2023-01-21T05:23:49.882Z,1.80
2023-01-21T05:26:16.355Z,1.87
2023-01-21T05:28:42.838Z,2.20
2023-01-21T05:31:09.486Z,1.90
2023-01-21T05:33:36.286Z,1.60
2023-01-21T05:36:04.458Z,1.83
2023-01-21T05:38:30.961Z,1.70
2023-01-21T05:40:59.840Z,1.90
2023-01-21T05:43:26.743Z,2.87
2023-01-21T05:45:53.675Z,2.30
2023-01-21T05:48:20.307Z,1.87
2023-01-21T05:50:47.864Z,1.80
2023-01-21T05:53:15.799Z,1.93
2023-01-21T05:55:42.359Z,1.63
2023-01-21T05:58:09.199Z,2.63
2023-01-21T06:00:35.698Z,2.07
2023-01-21T06:03:03.438Z,1.93
2023-01-21T06:05:30.367Z,2.00
2023-01-21T06:07:56.828Z,2.00
2023-01-21T06:10:23.304Z,2.93
2023-01-21T06:12:53.698Z,4.20
2023-01-21T06:15:20.515Z,3.10
2023-01-21T06:17:47.587Z,2.60
2023-01-21T06:20:14.355Z,3.40
2023-01-21T06:22:40.867Z,3.03
2023-01-21T06:25:07.930Z,2.10
2023-01-21T06:27:36.472Z,2.10
2023-01-21T06:30:07.570Z,2.40
2023-01-21T06:32:34.957Z,3.33
2023-01-21T06:35:01.654Z,6.57
2023-01-21T06:37:28.143Z,7.30
2023-01-21T06:39:54.616Z,5.27
2023-01-21T06:42:21.108Z,3.03
2023-01-21T06:44:47.617Z,2.10
2023-01-21T06:47:14.563Z,2.93
2023-01-21T06:49:41.042Z,2.37
2023-01-21T06:52:07.925Z,2.10
2023-01-21T06:54:34.478Z,2.53
2023-01-21T06:57:03.683Z,2.80
2023-01-21T06:59:30.188Z,3.10
2023-01-21T07:01:58.303Z,4.73
2023-01-21T07:04:26.942Z,5.47
2023-01-21T07:06:54.241Z,5.67
2023-01-21T07:09:21.124Z,8.07
2023-01-21T07:11:47.955Z,9.83
2023-01-21T07:14:14.449Z,9.83
2023-01-21T07:16:40.911Z,7.73
2023-01-21T07:19:07.402Z,8.20
2023-01-21T07:21:34.182Z,9.30
2023-01-21T07:24:00.641Z,12.07
2023-01-21T07:26:27.142Z,11.90
2023-01-21T07:28:53.597Z,10.93
2023-01-21T07:31:20.182Z,19.30
2023-01-21T07:33:46.677Z,13.27
2023-01-21T07:36:13.142Z,11.47
2023-01-21T07:38:39.656Z,13.93
2023-01-21T07:41:06.138Z,13.47
2023-01-21T07:43:32.640Z,11.97
2023-01-21T07:46:00.276Z,10.67
2023-01-21T07:48:26.915Z,7.87
2023-01-21T07:50:57.923Z,6.73
2023-01-21T07:53:24.767Z,7.27
2023-01-21T07:55:51.214Z,7.43
2023-01-21T07:58:17.684Z,13.43
2023-01-21T08:00:44.184Z,18.07
2023-01-21T08:03:10.718Z,18.27
2023-01-21T08:05:37.208Z,17.23
2023-01-21T08:08:03.869Z,16.90
2023-01-21T08:10:30.324Z,13.43
2023-01-21T08:12:56.795Z,10.53
2023-01-21T08:15:23.275Z,8.90
2023-01-21T08:17:49.884Z,9.07
2023-01-21T08:20:16.417Z,9.17
2023-01-21T08:22:42.929Z,10.90
2023-01-21T08:25:10.372Z,10.83
2023-01-21T08:27:36.850Z,10.33
2023-01-21T08:30:04.027Z,11.80
2023-01-21T08:32:30.991Z,6.83
2023-01-21T08:34:57.538Z,8.37
2023-01-21T08:37:24.011Z,8.53
2023-01-21T08:39:50.494Z,8.07
2023-01-21T08:42:16.998Z,8.83
2023-01-21T08:44:45.253Z,9.60
2023-01-21T08:47:11.847Z,12.13
2023-01-21T08:49:38.317Z,10.77
2023-01-21T08:52:05.087Z,12.30
2023-01-21T08:54:31.546Z,10.50
2023-01-21T08:56:58.043Z,9.23
2023-01-21T08:59:27.815Z,8.00
2023-01-21T09:01:57.360Z,8.00
2023-01-21T09:04:23.872Z,7.60
2023-01-21T09:06:50.356Z,9.03
2023-01-21T09:09:16.898Z,8.67
2023-01-21T09:11:43.381Z,28.43
2023-01-21T09:14:09.838Z,13.27
2023-01-21T09:16:36.495Z,9.37
2023-01-21T09:19:03.572Z,9.77
2023-01-21T09:21:30.912Z,9.80
2023-01-21T09:23:57.389Z,9.83
2023-01-21T09:26:24.413Z,6.83
2023-01-21T09:28:57.491Z,5.07
2023-01-21T09:31:26.293Z,4.87
2023-01-21T09:34:00.090Z,4.83
2023-01-21T09:36:32.517Z,4.83
2023-01-21T09:39:00.129Z,4.33
2023-01-21T09:42:20.089Z,4.53
2023-01-21T09:44:51.932Z,5.13
2023-01-21T09:47:41.066Z,5.20
2023-01-21T09:50:20.413Z,6.07
2023-01-21T09:54:27.333Z,6.60
2023-01-21T09:58:59.290Z,4.10
2023-01-21T10:01:36.160Z,3.27
2023-01-21T10:07:24.959Z,3.20
2023-01-21T10:13:42.021Z,3.17
2023-01-21T10:18:09.310Z,4.83
2023-01-21T10:20:56.315Z,8.57
2023-01-21T10:23:47.330Z,9.10
2023-01-21T10:26:16.434Z,9.17
2023-01-21T10:28:53.356Z,10.43
2023-01-21T10:31:38.664Z,10.50
2023-01-21T10:34:13.485Z,10.80
2023-01-21T10:37:47.552Z,11.43
2023-01-21T10:42:12.802Z,9.27
2023-01-21T10:47:29.811Z,7.73
2023-01-21T10:53:25.557Z,7.83
2023-01-21T10:56:13.199Z,6.70
2023-01-21T10:58:56.771Z,6.77
2023-01-21T11:01:34.702Z,7.30
2023-01-21T11:04:13.573Z,7.60
2023-01-21T11:06:42.049Z,8.23
2023-01-21T11:09:14.367Z,7.77
2023-01-21T11:11:42.154Z,4.40
2023-01-21T11:14:09.811Z,5.17
2023-01-21T11:16:47.833Z,4.07
2023-01-21T11:19:29.636Z,3.33
2023-01-21T11:22:22.764Z,2.87
2023-01-21T11:24:51.939Z,2.00
2023-01-21T11:27:34.978Z,2.20
2023-01-21T11:30:02.782Z,2.93
2023-01-21T11:32:31.267Z,2.93
2023-01-21T11:35:22.280Z,3.67
2023-01-21T11:37:48.815Z,3.33
2023-01-21T11:40:25.866Z,4.00
2023-01-21T11:42:56.556Z,2.57
2023-01-21T11:45:36.057Z,2.83
2023-01-21T11:48:19.632Z,2.40
2023-01-21T11:50:46.537Z,1.90
2023-01-21T11:53:18.568Z,3.00
2023-01-21T11:55:52.396Z,2.10
2023-01-21T11:58:41.240Z,1.90
2023-01-21T12:01:27.700Z,1.80
2023-01-21T12:04:00.211Z,1.80
2023-01-21T12:06:32.039Z,2.13
2023-01-21T12:09:07.098Z,2.37
2023-01-21T12:11:33.974Z,2.23
2023-01-21T12:14:25.642Z,2.23
2023-01-21T12:17:19.028Z,1.87
2023-01-21T12:22:30.974Z,1.90
2023-01-21T12:25:40.806Z,1.67
2023-01-21T12:32:17.204Z,1.90
2023-01-21T12:35:01.896Z,1.57
2023-01-21T12:37:59.918Z,2.30
2023-01-21T12:40:36.416Z,1.33
2023-01-21T12:43:30.720Z,1.77
2023-01-21T12:46:09.914Z,2.00
2023-01-21T12:49:05.692Z,1.83
2023-01-21T12:51:59.290Z,2.27
2023-01-21T12:55:13.083Z,1.87
2023-01-21T12:58:34.127Z,1.90
2023-01-21T13:01:14.463Z,1.90
2023-01-21T13:07:02.931Z,1.80
2023-01-21T13:09:43.186Z,3.07
2023-01-21T13:12:23.698Z,2.50
2023-01-21T13:15:37.593Z,2.63
2023-01-21T13:18:15.684Z,2.53
2023-01-21T13:20:53.695Z,2.77
2023-01-21T13:23:53.050Z,2.40
2023-01-21T13:30:08.969Z,3.53
2023-01-21T13:35:33.181Z,2.63
2023-01-21T13:38:46.911Z,2.93
2023-01-21T13:41:49.779Z,2.60
2023-01-21T13:48:40.402Z,3.37
2023-01-21T13:52:04.817Z,2.60
2023-01-21T13:55:36.541Z,2.03
2023-01-21T13:58:14.529Z,2.73
2023-01-21T14:00:57.746Z,2.43
2023-01-21T14:03:40.042Z,2.77
2023-01-21T14:06:34.086Z,2.47
2023-01-21T14:09:14.234Z,2.77
2023-01-21T14:12:06.734Z,2.80
2023-01-21T14:17:03.108Z,3.07
2023-01-21T14:24:26.789Z,3.97
2023-01-21T14:31:10.477Z,4.77
2023-01-21T14:34:16.951Z,4.13
2023-01-21T14:37:04.732Z,4.73
2023-01-21T14:40:26.051Z,3.83
2023-01-21T14:42:53.907Z,4.40
2023-01-21T14:45:25.047Z,3.93
2023-01-21T14:47:54.635Z,2.97
2023-01-21T14:50:53.604Z,2.57
2023-01-21T14:53:25.322Z,2.87
2023-01-21T14:56:25.843Z,3.20
2023-01-21T14:59:07.395Z,3.37
2023-01-21T15:01:44.637Z,2.67
2023-01-21T15:06:51.275Z,2.67
2023-01-21T15:09:27.852Z,2.00
2023-01-21T15:12:03.131Z,2.03
2023-01-21T15:14:34.983Z,2.20
2023-01-21T15:17:01.833Z,2.60
2023-01-21T15:19:34.569Z,6.33
2023-01-21T15:22:37.030Z,4.53
2023-01-21T15:25:33.543Z,3.10
2023-01-21T15:28:55.933Z,3.07
2023-01-21T15:31:43.877Z,3.07
2023-01-21T15:34:20.892Z,2.67
2023-01-21T15:36:56.417Z,5.13
2023-01-21T15:39:33.826Z,5.87
2023-01-21T15:42:54.488Z,3.80
2023-01-21T15:46:10.016Z,2.97
2023-01-21T15:49:47.184Z,3.27
2023-01-21T15:55:20.832Z,2.60
2023-01-21T15:58:24.799Z,2.87
2023-01-21T16:01:37.311Z,2.80
2023-01-21T16:04:37.095Z,2.93
2023-01-21T16:07:39.359Z,2.90
2023-01-21T16:13:28.140Z,3.90
2023-01-21T16:16:38.104Z,3.17
2023-01-21T16:19:11.796Z,3.70
2023-01-21T16:21:45.418Z,3.30
2023-01-21T16:24:18.237Z,2.47
2023-01-21T16:26:45.002Z,3.10
2023-01-21T16:29:13.874Z,3.47
2023-01-21T16:32:00.662Z,4.07
2023-01-21T16:34:42.924Z,3.70
2023-01-21T16:37:26.903Z,3.77
2023-01-21T16:40:17.842Z,3.93
2023-01-21T16:42:44.414Z,4.63
2023-01-21T16:45:25.200Z,4.40
2023-01-21T16:47:56.617Z,4.37
2023-01-21T16:50:27.400Z,4.37
2023-01-21T16:52:56.795Z,4.30
2023-01-21T16:55:27.507Z,4.13
2023-01-21T16:57:57.918Z,3.50
2023-01-21T17:00:32.582Z,15.33
2023-01-21T17:03:00.261Z,11.37
2023-01-21T17:05:33.033Z,5.70
2023-01-21T17:08:10.210Z,4.63
2023-01-21T17:11:07.245Z,4.53
2023-01-21T17:13:37.684Z,4.23
2023-01-21T17:16:06.438Z,4.27
2023-01-21T17:20:06.556Z,4.30
2023-01-21T17:22:35.248Z,3.93
2023-01-21T17:25:23.137Z,4.23
2023-01-21T17:27:49.598Z,3.73
2023-01-21T17:30:32.162Z,3.80
2023-01-21T17:33:01.794Z,3.97
2023-01-21T17:35:32.154Z,3.97
2023-01-21T17:38:02.405Z,4.20
2023-01-21T17:41:02.905Z,3.63
2023-01-21T17:43:29.750Z,3.43
2023-01-21T17:45:57.296Z,3.43
2023-01-21T17:48:32.258Z,3.97
2023-01-21T17:51:21.338Z,3.87
2023-01-21T17:54:19.385Z,4.17
2023-01-21T17:56:58.980Z,4.40
2023-01-21T17:59:37.228Z,4.20
2023-01-21T18:02:16.757Z,4.50
2023-01-21T18:04:43.863Z,5.10
2023-01-21T18:07:29.189Z,5.83
2023-01-21T18:10:01.900Z,5.97
2023-01-21T18:12:28.411Z,5.67
2023-01-21T18:14:54.879Z,5.53
2023-01-21T18:17:24.268Z,5.20
2023-01-21T18:19:50.929Z,5.57
2023-01-21T18:22:29.772Z,5.20
2023-01-21T18:24:56.270Z,5.03
2023-01-21T18:27:25.825Z,5.33
2023-01-21T18:29:53.297Z,5.20
2023-01-21T18:32:19.778Z,5.47
2023-01-21T18:34:46.242Z,5.80
2023-01-21T18:37:18.306Z,5.77
2023-01-21T18:39:45.161Z,5.83
2023-01-21T18:42:17.141Z,6.47
2023-01-21T18:44:44.700Z,7.37
2023-01-21T18:47:13.893Z,6.97
2023-01-21T18:49:40.695Z,7.20
2023-01-21T18:52:09.752Z,8.33
2023-01-21T18:54:36.221Z,7.97
2023-01-21T18:57:02.721Z,8.87
2023-01-21T18:59:29.204Z,9.20
2023-01-21T19:01:56.282Z,9.47
2023-01-21T19:04:22.804Z,9.50
2023-01-21T19:06:49.657Z,10.60
2023-01-21T19:09:24.446Z,11.07
2023-01-21T19:11:51.666Z,11.00
2023-01-21T19:14:18.146Z,10.13
2023-01-21T19:16:45.375Z,10.20
2023-01-21T19:19:15.473Z,9.90
2023-01-21T19:21:41.981Z,8.47
2023-01-21T19:24:11.750Z,7.80
2023-01-21T19:26:38.890Z,6.63
2023-01-21T19:29:14.413Z,7.07
2023-01-21T19:31:41.043Z,6.67
2023-01-21T19:34:09.768Z,5.93
2023-01-21T19:36:36.276Z,6.40
2023-01-21T19:39:02.754Z,7.03
2023-01-21T19:41:29.213Z,5.50
2023-01-21T19:43:55.676Z,6.30
2023-01-21T19:46:23.088Z,5.93
2023-01-21T19:48:51.497Z,6.40
2023-01-21T19:51:18.107Z,5.87
2023-01-21T19:53:44.625Z,6.43
2023-01-21T19:56:21.670Z,5.70
2023-01-21T19:58:48.253Z,5.63
2023-01-21T20:01:14.849Z,5.73
2023-01-21T20:03:54.793Z,9.03
2023-01-21T20:06:25.519Z,8.67
2023-01-21T20:08:52.412Z,15.03
2023-01-21T20:11:18.908Z,15.30
2023-01-21T20:13:45.392Z,10.97
2023-01-21T20:16:20.107Z,7.60
2023-01-21T20:18:47.474Z,8.20
2023-01-21T20:21:16.676Z,10.50
2023-01-21T20:23:43.181Z,19.37
2023-01-21T20:26:20.347Z,15.43
2023-01-21T20:28:50.417Z,8.40
2023-01-21T20:31:17.651Z,6.30
2023-01-21T20:33:44.238Z,5.60
2023-01-21T20:36:21.641Z,5.17
2023-01-21T20:38:48.402Z,6.03
2023-01-21T20:41:14.935Z,6.17
2023-01-21T20:43:41.556Z,6.13
2023-01-21T20:46:19.891Z,6.33
2023-01-21T20:48:46.761Z,6.03
2023-01-21T20:51:13.472Z,9.00
2023-01-21T20:53:40.070Z,11.47
2023-01-21T20:57:58.435Z,17.30
2023-01-21T21:00:30.072Z,19.43
2023-01-21T21:02:59.326Z,19.23
2023-01-21T21:05:27.719Z,18.53
2023-01-21T21:07:55.272Z,14.13
2023-01-21T21:10:35.788Z,6.77
2023-01-21T21:13:03.410Z,6.47
2023-01-21T21:15:32.741Z,7.33
2023-01-21T21:17:59.695Z,7.93
2023-01-21T21:20:36.189Z,8.73
2023-01-21T21:23:03.481Z,9.13
2023-01-21T21:25:35.938Z,9.43
2023-01-21T21:28:02.451Z,11.10
2023-01-21T21:30:33.132Z,12.40
2023-01-21T21:33:01.043Z,11.60
2023-01-21T21:35:34.934Z,9.97
2023-01-21T21:38:11.192Z,8.97
2023-01-21T21:40:38.005Z,8.90
2023-01-21T21:43:22.807Z,9.00
2023-01-21T21:46:07.912Z,7.60
2023-01-21T21:48:37.219Z,6.43
2023-01-21T21:51:10.840Z,5.87
2023-01-21T21:53:39.009Z,6.37
2023-01-21T21:56:13.843Z,6.40
2023-01-21T21:58:40.547Z,6.83
2023-01-21T22:01:34.061Z,9.43
2023-01-21T22:04:02.554Z,10.40
2023-01-21T22:06:29.908Z,10.30
2023-01-21T22:08:58.007Z,10.63
2023-01-21T22:11:25.752Z,10.70
2023-01-21T22:13:54.073Z,12.43
2023-01-21T22:16:28.180Z,12.63
2023-01-21T22:18:57.288Z,13.40
2023-01-21T22:21:31.212Z,14.63
2023-01-21T22:23:57.674Z,14.03
2023-01-21T22:26:25.700Z,13.63
2023-01-21T22:28:53.049Z,11.47
2023-01-21T22:31:26.142Z,13.53
2023-01-21T22:33:53.361Z,13.50
2023-01-21T22:36:22.992Z,13.20
2023-01-21T22:38:50.475Z,9.27
2023-01-21T22:41:20.846Z,9.17
2023-01-21T22:43:48.989Z,9.50
2023-01-21T22:46:25.588Z,8.60
2023-01-21T22:48:53.735Z,8.33
2023-01-21T22:51:22.179Z,8.43
2023-01-21T22:53:49.672Z,9.17
2023-01-21T22:56:19.956Z,6.30
2023-01-21T22:58:46.709Z,5.37
2023-01-21T23:01:32.245Z,4.10
2023-01-21T23:03:59.775Z,4.67
2023-01-21T23:06:26.400Z,4.60
2023-01-21T23:08:52.871Z,5.17
2023-01-21T23:11:19.771Z,4.80
2023-01-21T23:13:49.064Z,4.57
2023-01-21T23:16:18.802Z,4.27
2023-01-21T23:18:45.450Z,3.83
2023-01-21T23:21:21.370Z,4.10
2023-01-21T23:23:48.535Z,6.03
2023-01-21T23:26:15.770Z,4.77
2023-01-21T23:28:42.437Z,5.07
2023-01-21T23:31:14.076Z,4.10
2023-01-21T23:33:41.579Z,3.50
2023-01-21T23:36:12.535Z,3.30
2023-01-21T23:38:40.227Z,4.20
2023-01-21T23:41:09.810Z,4.93
2023-01-21T23:43:36.403Z,4.73
2023-01-21T23:46:08.452Z,6.23
2023-01-21T23:48:34.951Z,5.60
2023-01-21T23:51:07.268Z,4.50
2023-01-21T23:53:34.316Z,4.67
2023-01-21T23:56:07.916Z,7.23
2023-01-21T23:58:34.454Z,5.33
